Milwaukee, WI

11:08 AM CST on January 27, 2015 (GMT -0600)
Shorewood | Change Station
CLOSE
Current Station
Personal Weather Station
Location: Shorewood, WI
Elevation: 686 ft
Nearby Weather Stations

Elev 686 ft 43.09 °N, 87.89 °W | Updated 7 minutes ago

Overcast
Overcast
34.3 °F
Feels Like 32 °F
N
3.1
Wind Variable Wind from East

Today
High -- | Low -- °F
--% Chance of Precip.
Yesterday
High -- | Low -- °F
Precip. -- in
7:11 AM 4:57 PM
First Quarter, 56% visible
Pressure 30.19 in
Visibility 10.0 miles
Clouds Scattered Clouds 4900 ft
Windchill 32 °F
Dew Point 18 °F
Humidity 51%
Rainfall 0.00 in
Snow Depth Not available.
UV 2 out of 12
Pollen .10 out of 12
Air Quality Not available.
Flu Activity Not available.
METAR KMWC 271645Z AUTO 03007KT 10SM SCT049 M02/M09 A3019

More Conditions Fewer Conditions

Pressure 30.19 in
Visibility 10.0 miles
Clouds Scattered Clouds 4900 ft
Windchill 32 °F
Dew Point 18 °F
Humidity 51%
Rainfall 0.00 in
Snow Depth Not available.
UV 2 out of 12
Pollen .10 out of 12
Air Quality Not available.
Flu Activity Not available.
METAR KMWC 271645Z AUTO 03007KT 10SM SCT049 M02/M09 A3019

More Conditions Fewer Conditions

10-Day Weather Forecast

Almanac

Astronomy

Jan. 27, 2015 Rise Set
Actual Time
Civil Twilight
Nautical Twilight
Astronomical Twilight
Moon
Length of Visible Light
Length of Day
Tomorrow will be .
, % of the Moon is Illuminated

Today's Extremes

State Highs State Lows

Community

WunderPhotos

Upload Photos

1,790,729 photos uploaded!

WunderBlogs® & News

Nearby

Air Quality

  Air Quality AQ Index Pollutant
Not available.

Snow Depth

Station Depth Elevation

Earthquake Activity

City Distance Mag. Time & Date
Minimum magnitude displayed is 2.5.

Coastal Water Temperatures

Place Temperature

Nearby Weather Stations